Allison, Texas
Current Conditions -  °F | °C
As of 3:35 AM on Thursday 27 Nov 2014 (Local Time) from KHHF Reporting Station
Clear Clear  
Wind Chill: 24°   Ceiling: Unl
Heat Index: 24°   Visibility: 10mi
Dew Point: 20°   Wind: 0mph
Humidity: 85%   Direction: NA
Pressure: 30.46"   Gusts: NA
Location:  35.61°N, 100.1°W
Report Text: KHHF 270935Z AUTO 00000KT 10SM CLR M04/M07 A3046 RMK AO2 T10451067
Loading
Personal Weather Stations






























Interactive Weather Map New forecast layout! Learn more

10-Day Weather Forecast

Advertisements
Track Severe Weather on mobile